sensor_id;sensor_type;location;lat;lon;timestamp;pressure;altitude;pressure_sealevel;temperature;humidity
73383;BME280;61600;48.126;11.542;2022-11-15T00:00:28;95584.44;;;8.42;66.10
73383;BME280;61600;48.126;11.542;2022-11-15T00:02:54;95586.88;;;8.53;65.57
73383;BME280;61600;48.126;11.542;2022-11-15T00:05:20;95582.81;;;8.46;65.63
73383;BME280;61600;48.126;11.542;2022-11-15T00:07:46;95574.41;;;8.37;66.00
73383;BME280;61600;48.126;11.542;2022-11-15T00:10:12;95573.09;;;8.40;65.78
73383;BME280;61600;48.126;11.542;2022-11-15T00:12:37;95575.47;;;8.57;65.27
73383;BME280;61600;48.126;11.542;2022-11-15T00:15:03;95567.28;;;8.82;64.30
73383;BME280;61600;48.126;11.542;2022-11-15T00:17:29;95578.97;;;8.77;64.26
73383;BME280;61600;48.126;11.542;2022-11-15T00:19:55;95565.69;;;8.71;64.68
73383;BME280;61600;48.126;11.542;2022-11-15T00:22:21;95562.47;;;8.64;65.13
73383;BME280;61600;48.126;11.542;2022-11-15T00:24:46;95563.56;;;8.52;64.71
73383;BME280;61600;48.126;11.542;2022-11-15T00:27:12;95570.34;;;8.45;65.79
73383;BME280;61600;48.126;11.542;2022-11-15T00:29:38;95559.78;;;8.43;65.56
73383;BME280;61600;48.126;11.542;2022-11-15T00:32:11;95570.63;;;8.38;65.90
73383;BME280;61600;48.126;11.542;2022-11-15T00:34:37;95567.38;;;8.31;66.11
73383;BME280;61600;48.126;11.542;2022-11-15T00:37:03;95564.94;;;8.35;65.65
73383;BME280;61600;48.126;11.542;2022-11-15T00:39:29;95560.34;;;8.40;65.98
73383;BME280;61600;48.126;11.542;2022-11-15T00:41:54;95562.19;;;8.55;65.34
73383;BME280;61600;48.126;11.542;2022-11-15T00:44:20;95555.97;;;8.44;65.34
73383;BME280;61600;48.126;11.542;2022-11-15T00:46:46;95552.19;;;8.25;65.74
73383;BME280;61600;48.126;11.542;2022-11-15T00:49:12;95554.09;;;8.15;66.19
73383;BME280;61600;48.126;11.542;2022-11-15T00:51:37;95547.34;;;8.12;65.86
73383;BME280;61600;48.126;11.542;2022-11-15T00:54:03;95543.56;;;7.98;67.21
73383;BME280;61600;48.126;11.542;2022-11-15T00:56:29;95543.81;;;8.01;66.75
73383;BME280;61600;48.126;11.542;2022-11-15T00:58:55;95548.97;;;7.98;66.89
73383;BME280;61600;48.126;11.542;2022-11-15T01:01:21;95531.63;;;8.04;66.53
73383;BME280;61600;48.126;11.542;2022-11-15T01:03:47;95535.41;;;8.03;66.20
73383;BME280;61600;48.126;11.542;2022-11-15T01:06:12;95531.34;;;8.00;66.67
73383;BME280;61600;48.126;11.542;2022-11-15T01:08:39;95523.75;;;8.02;66.68
73383;BME280;61600;48.126;11.542;2022-11-15T01:11:08;95524.59;;;7.93;66.73
73383;BME280;61600;48.126;11.542;2022-11-15T01:13:35;95522.94;;;7.92;66.49
73383;BME280;61600;48.126;11.542;2022-11-15T01:18:33;95520.53;;;8.00;66.79
73383;BME280;61600;48.126;11.542;2022-11-15T01:20:58;95508.63;;;8.01;66.33
73383;BME280;61600;48.126;11.542;2022-11-15T01:23:24;95505.34;;;7.99;66.15
73383;BME280;61600;48.126;11.542;2022-11-15T01:25:49;95505.63;;;7.93;66.02
73383;BME280;61600;48.126;11.542;2022-11-15T01:28:15;95506.19;;;7.95;65.80
73383;BME280;61600;48.126;11.542;2022-11-15T01:30:40;95501.03;;;7.88;65.91
73383;BME280;61600;48.126;11.542;2022-11-15T01:33:06;95503.47;;;7.90;65.90
73383;BME280;61600;48.126;11.542;2022-11-15T01:35:32;95496.41;;;7.99;65.67
73383;BME280;61600;48.126;11.542;2022-11-15T01:37:57;95498.31;;;8.03;65.19
73383;BME280;61600;48.126;11.542;2022-11-15T01:40:23;95491.56;;;8.01;64.78
73383;BME280;61600;48.126;11.542;2022-11-15T01:42:49;95496.41;;;8.04;65.09
73383;BME280;61600;48.126;11.542;2022-11-15T01:45:15;95489.66;;;8.01;65.02
73383;BME280;61600;48.126;11.542;2022-11-15T01:47:46;95484.78;;;7.83;65.25
73383;BME280;61600;48.126;11.542;2022-11-15T01:50:16;95492.09;;;7.88;65.56
73383;BME280;61600;48.126;11.542;2022-11-15T01:52:43;95485.31;;;7.95;65.32
73383;BME280;61600;48.126;11.542;2022-11-15T01:55:19;95484.78;;;7.93;65.23
73383;BME280;61600;48.126;11.542;2022-11-15T01:57:47;95483.66;;;8.10;64.69
73383;BME280;61600;48.126;11.542;2022-11-15T02:00:15;95482.88;;;8.09;63.83
73383;BME280;61600;48.126;11.542;2022-11-15T02:02:41;95479.09;;;7.80;64.82
73383;BME280;61600;48.126;11.542;2022-11-15T02:05:07;95468.28;;;7.65;65.06
73383;BME280;61600;48.126;11.542;2022-11-15T02:07:34;95473.97;;;7.68;65.63
73383;BME280;61600;48.126;11.542;2022-11-15T02:10:09;95465.03;;;7.73;65.29
73383;BME280;61600;48.126;11.542;2022-11-15T02:12:35;95460.16;;;7.95;65.09
73383;BME280;61600;48.126;11.542;2022-11-15T02:15:01;95466.91;;;7.92;64.67
73383;BME280;61600;48.126;11.542;2022-11-15T02:20:41;95464.19;;;7.92;64.12
73383;BME280;61600;48.126;11.542;2022-11-15T02:37:15;95461.78;;;7.61;65.09
73383;BME280;61600;48.126;11.542;2022-11-15T02:40:47;95454.19;;;7.47;65.30
73383;BME280;61600;48.126;11.542;2022-11-15T02:42:56;95455.00;;;7.43;65.43
73383;BME280;61600;48.126;11.542;2022-11-15T02:45:50;95458.53;;;7.33;66.01
73383;BME280;61600;48.126;11.542;2022-11-15T02:48:18;95446.63;;;7.14;66.37
73383;BME280;61600;48.126;11.542;2022-11-15T02:50:46;95450.94;;;7.15;66.49
73383;BME280;61600;48.126;11.542;2022-11-15T02:53:14;95448.75;;;7.02;66.61
73383;BME280;61600;48.126;11.542;2022-11-15T02:55:45;95442.78;;;6.95;66.90
73383;BME280;61600;48.126;11.542;2022-11-15T02:58:47;95442.53;;;6.96;66.87
73383;BME280;61600;48.126;11.542;2022-11-15T03:06:40;95440.38;;;7.14;65.99
73383;BME280;61600;48.126;11.542;2022-11-15T03:11:51;95421.72;;;7.02;66.01
73383;BME280;61600;48.126;11.542;2022-11-15T03:14:27;95423.34;;;7.13;66.02
73383;BME280;61600;48.126;11.542;2022-11-15T03:19:47;95418.19;;;7.12;65.49
73383;BME280;61600;48.126;11.542;2022-11-15T03:22:16;95422.78;;;7.11;65.66
73383;BME280;61600;48.126;11.542;2022-11-15T03:24:45;95424.44;;;7.17;65.60
73383;BME280;61600;48.126;11.542;2022-11-15T03:27:14;95418.19;;;7.22;65.59
73383;BME280;61600;48.126;11.542;2022-11-15T03:29:45;95414.16;;;7.19;65.71
73383;BME280;61600;48.126;11.542;2022-11-15T03:32:25;95413.59;;;7.22;65.43
73383;BME280;61600;48.126;11.542;2022-11-15T03:34:57;95411.72;;;7.18;65.47
73383;BME280;61600;48.126;11.542;2022-11-15T03:40:17;95400.63;;;7.19;65.18
73383;BME280;61600;48.126;11.542;2022-11-15T03:43:43;95403.88;;;7.26;65.14
73383;BME280;61600;48.126;11.542;2022-11-15T03:46:02;95402.25;;;7.15;65.51
73383;BME280;61600;48.126;11.542;2022-11-15T03:48:51;95402.53;;;7.24;65.00
73383;BME280;61600;48.126;11.542;2022-11-15T03:51:18;95400.91;;;7.33;64.93
73383;BME280;61600;48.126;11.542;2022-11-15T03:53:44;95391.97;;;7.47;64.21
73383;BME280;61600;48.126;11.542;2022-11-15T03:56:10;95384.13;;;7.31;64.30
73383;BME280;61600;48.126;11.542;2022-11-15T03:58:36;95388.44;;;7.32;64.60
73383;BME280;61600;48.126;11.542;2022-11-15T04:01:01;95386.03;;;7.10;64.86
73383;BME280;61600;48.126;11.542;2022-11-15T04:03:27;95391.97;;;7.12;65.59
73383;BME280;61600;48.126;11.542;2022-11-15T04:05:53;95379.81;;;6.99;65.79
73383;BME280;61600;48.126;11.542;2022-11-15T04:08:19;95383.31;;;7.00;65.69
73383;BME280;61600;48.126;11.542;2022-11-15T04:10:44;95381.41;;;6.95;65.25
73383;BME280;61600;48.126;11.542;2022-11-15T04:13:10;95388.13;;;6.83;66.03
73383;BME280;61600;48.126;11.542;2022-11-15T04:15:35;95383.28;;;6.85;65.81
73383;BME280;61600;48.126;11.542;2022-11-15T04:18:01;95378.97;;;6.84;65.47
73383;BME280;61600;48.126;11.542;2022-11-15T04:20:29;95369.78;;;7.05;65.61
73383;BME280;61600;48.126;11.542;2022-11-15T04:23:19;95378.72;;;6.95;65.38
73383;BME280;61600;48.126;11.542;2022-11-15T04:26:05;95388.19;;;7.08;64.79
73383;BME280;61600;48.126;11.542;2022-11-15T04:28:33;95379.25;;;7.13;64.76
73383;BME280;61600;48.126;11.542;2022-11-15T04:30:58;95374.09;;;7.01;64.25
73383;BME280;61600;48.126;11.542;2022-11-15T04:33:24;95366.00;;;6.96;64.82
73383;BME280;61600;48.126;11.542;2022-11-15T04:35:51;95364.94;;;7.07;63.83
73383;BME280;61600;48.126;11.542;2022-11-15T04:38:37;95365.72;;;6.97;64.27
73383;BME280;61600;48.126;11.542;2022-11-15T04:41:02;95368.44;;;6.97;63.82
73383;BME280;61600;48.126;11.542;2022-11-15T04:43:29;95368.72;;;7.06;63.63
73383;BME280;61600;48.126;11.542;2022-11-15T04:45:55;95364.41;;;7.00;63.65
73383;BME280;61600;48.126;11.542;2022-11-15T04:48:20;95360.31;;;6.77;64.33
73383;BME280;61600;48.126;11.542;2022-11-15T04:50:49;95363.00;;;6.87;64.14
73383;BME280;61600;48.126;11.542;2022-11-15T04:53:15;95368.72;;;7.06;63.53
73383;BME280;61600;48.126;11.542;2022-11-15T04:55:44;95360.03;;;7.04;63.61
73383;BME280;61600;48.126;11.542;2022-11-15T04:58:10;95363.84;;;7.08;63.73
73383;BME280;61600;48.126;11.542;2022-11-15T05:00:36;95355.72;;;7.08;63.69
73383;BME280;61600;48.126;11.542;2022-11-15T05:03:02;95360.31;;;7.08;63.48
73383;BME280;61600;48.126;11.542;2022-11-15T05:05:46;95359.25;;;6.98;63.57
73383;BME280;61600;48.126;11.542;2022-11-15T05:08:12;95347.34;;;6.99;63.56
73383;BME280;61600;48.126;11.542;2022-11-15T05:10:38;95354.94;;;6.92;64.07
73383;BME280;61600;48.126;11.542;2022-11-15T05:13:03;95344.66;;;6.89;64.45
73383;BME280;61600;48.126;11.542;2022-11-15T05:15:29;95344.34;;;6.81;64.47
73383;BME280;61600;48.126;11.542;2022-11-15T05:17:58;95343.84;;;6.79;64.98
73383;BME280;61600;48.126;11.542;2022-11-15T05:20:25;95335.44;;;6.75;64.93
73383;BME280;61600;48.126;11.542;2022-11-15T05:22:53;95333.78;;;6.59;64.90
73383;BME280;61600;48.126;11.542;2022-11-15T05:25:20;95333.78;;;6.69;64.46
73383;BME280;61600;48.126;11.542;2022-11-15T05:27:46;95333.78;;;6.59;64.99
73383;BME280;61600;48.126;11.542;2022-11-15T05:30:11;95328.94;;;6.61;65.00
73383;BME280;61600;48.126;11.542;2022-11-15T05:32:37;95326.75;;;6.53;64.79
73383;BME280;61600;48.126;11.542;2022-11-15T05:35:06;95317.84;;;6.58;65.05
73383;BME280;61600;48.126;11.542;2022-11-15T05:37:34;95317.59;;;6.64;64.88
73383;BME280;61600;48.126;11.542;2022-11-15T05:40:00;95316.22;;;6.67;64.28
73383;BME280;61600;48.126;11.542;2022-11-15T05:42:26;95317.06;;;6.67;64.46
73383;BME280;61600;48.126;11.542;2022-11-15T05:44:53;95317.31;;;6.61;64.98
73383;BME280;61600;48.126;11.542;2022-11-15T05:47:22;95317.28;;;6.56;65.79
73383;BME280;61600;48.126;11.542;2022-11-15T05:49:52;95316.25;;;6.72;64.82
73383;BME280;61600;48.126;11.542;2022-11-15T05:52:22;95316.50;;;6.65;65.12
73383;BME280;61600;48.126;11.542;2022-11-15T05:54:50;95315.16;;;6.83;64.63
73383;BME280;61600;48.126;11.542;2022-11-15T05:57:16;95313.81;;;6.85;64.66
73383;BME280;61600;48.126;11.542;2022-11-15T05:59:42;95312.44;;;6.83;64.56
73383;BME280;61600;48.126;11.542;2022-11-15T06:02:09;95304.63;;;6.71;64.30
73383;BME280;61600;48.126;11.542;2022-11-15T06:04:35;95296.78;;;6.70;64.62
73383;BME280;61600;48.126;11.542;2022-11-15T06:07:01;95306.50;;;6.76;64.64
73383;BME280;61600;48.126;11.542;2022-11-15T06:09:27;95299.22;;;6.66;64.90
73383;BME280;61600;48.126;11.542;2022-11-15T06:11:53;95305.69;;;6.80;64.47
73383;BME280;61600;48.126;11.542;2022-11-15T06:14:18;95300.31;;;6.75;64.23
73383;BME280;61600;48.126;11.542;2022-11-15T06:16:44;95313.53;;;6.77;64.59
73383;BME280;61600;48.126;11.542;2022-11-15T06:19:10;95308.13;;;6.87;63.62
73383;BME280;61600;48.126;11.542;2022-11-15T06:21:35;95307.06;;;6.78;63.97
73383;BME280;61600;48.126;11.542;2022-11-15T06:24:03;95294.34;;;6.93;63.91
73383;BME280;61600;48.126;11.542;2022-11-15T06:26:30;95292.72;;;7.02;63.18
73383;BME280;61600;48.126;11.542;2022-11-15T06:28:55;95293.28;;;6.89;63.64
73383;BME280;61600;48.126;11.542;2022-11-15T06:31:21;95284.91;;;6.71;64.55
73383;BME280;61600;48.126;11.542;2022-11-15T06:33:49;95293.53;;;6.73;64.28
73383;BME280;61600;48.126;11.542;2022-11-15T06:36:15;95312.19;;;6.94;63.79
73383;BME280;61600;48.126;11.542;2022-11-15T06:38:44;95300.56;;;7.04;63.23
73383;BME280;61600;48.126;11.542;2022-11-15T06:41:11;95300.03;;;7.07;63.22
73383;BME280;61600;48.126;11.542;2022-11-15T06:43:38;95296.53;;;7.07;63.21
73383;BME280;61600;48.126;11.542;2022-11-15T06:46:06;95298.13;;;7.18;62.71
73383;BME280;61600;48.126;11.542;2022-11-15T06:48:33;95301.63;;;7.08;63.30
73383;BME280;61600;48.126;11.542;2022-11-15T06:51:02;95304.88;;;7.15;62.97
73383;BME280;61600;48.126;11.542;2022-11-15T06:53:29;95309.50;;;7.10;62.78
73383;BME280;61600;48.126;11.542;2022-11-15T06:56:00;95307.88;;;7.09;62.92
73383;BME280;61600;48.126;11.542;2022-11-15T06:58:27;95313.00;;;7.05;63.14
73383;BME280;61600;48.126;11.542;2022-11-15T07:00:58;95315.72;;;6.95;63.27
73383;BME280;61600;48.126;11.542;2022-11-15T07:03:23;95304.63;;;7.01;62.94
73383;BME280;61600;48.126;11.542;2022-11-15T07:05:53;95301.38;;;7.15;62.84
73383;BME280;61600;48.126;11.542;2022-11-15T07:08:21;95315.69;;;7.30;62.27
73383;BME280;61600;48.126;11.542;2022-11-15T07:10:47;95311.38;;;7.34;62.41
73383;BME280;61600;48.126;11.542;2022-11-15T07:13:13;95316.75;;;7.44;62.36
73383;BME280;61600;48.126;11.542;2022-11-15T07:15:39;95315.66;;;7.50;62.28
73383;BME280;61600;48.126;11.542;2022-11-15T07:18:04;95317.81;;;7.53;61.83
73383;BME280;61600;48.126;11.542;2022-11-15T07:20:30;95323.50;;;7.52;62.35
73383;BME280;61600;48.126;11.542;2022-11-15T07:23:00;95321.63;;;7.52;62.52
73383;BME280;61600;48.126;11.542;2022-11-15T07:25:27;95320.53;;;7.43;62.65
73383;BME280;61600;48.126;11.542;2022-11-15T07:27:57;95322.97;;;7.25;62.88
73383;BME280;61600;48.126;11.542;2022-11-15T07:30:24;95327.06;;;7.22;62.76
73383;BME280;61600;48.126;11.542;2022-11-15T07:32:58;95318.63;;;7.39;62.49
73383;BME280;61600;48.126;11.542;2022-11-15T07:35:25;95317.28;;;7.51;61.86
73383;BME280;61600;48.126;11.542;2022-11-15T07:38:00;95313.97;;;7.80;61.14
73383;BME280;61600;48.126;11.542;2022-11-15T07:40:30;95299.31;;;7.86;61.34
73383;BME280;61600;48.126;11.542;2022-11-15T07:43:05;95301.19;;;7.85;61.16
73383;BME280;61600;48.126;11.542;2022-11-15T07:45:32;95301.25;;;7.80;61.76
73383;BME280;61600;48.126;11.542;2022-11-15T07:48:01;95294.66;;;8.01;61.32
73383;BME280;61600;48.126;11.542;2022-11-15T07:50:27;95300.34;;;8.05;61.51
73383;BME280;61600;48.126;11.542;2022-11-15T07:52:56;95297.53;;;8.20;61.69
73383;BME280;61600;48.126;11.542;2022-11-15T07:55:25;95295.38;;;8.22;61.36
73383;BME280;61600;48.126;11.542;2022-11-15T07:57:51;95288.78;;;8.38;61.07
73383;BME280;61600;48.126;11.542;2022-11-15T08:00:17;95287.66;;;8.44;60.99
73383;BME280;61600;48.126;11.542;2022-11-15T08:02:43;95281.41;;;8.54;60.97
73383;BME280;61600;48.126;11.542;2022-11-15T08:05:09;95278.31;;;8.66;60.94
73383;BME280;61600;48.126;11.542;2022-11-15T08:07:35;95278.03;;;8.72;61.08
73383;BME280;61600;48.126;11.542;2022-11-15T08:10:01;95271.22;;;8.75;60.52
73383;BME280;61600;48.126;11.542;2022-11-15T08:12:29;95268.69;;;8.83;59.84
73383;BME280;61600;48.126;11.542;2022-11-15T08:14:57;95266.53;;;8.85;60.02
73383;BME280;61600;48.126;11.542;2022-11-15T08:17:23;95267.50;;;8.94;59.87
73383;BME280;61600;48.126;11.542;2022-11-15T08:19:50;95250.59;;;9.08;59.60
73383;BME280;61600;48.126;11.542;2022-11-15T08:22:16;95241.91;;;9.11;59.38
73383;BME280;61600;48.126;11.542;2022-11-15T08:24:42;95242.31;;;9.23;59.17
73383;BME280;61600;48.126;11.542;2022-11-15T08:27:07;95236.44;;;9.39;58.61
73383;BME280;61600;48.126;11.542;2022-11-15T08:29:43;95234.47;;;9.45;58.69
73383;BME280;61600;48.126;11.542;2022-11-15T08:32:10;95226.00;;;9.51;57.90
73383;BME280;61600;48.126;11.542;2022-11-15T08:34:37;95211.84;;;9.54;58.04
73383;BME280;61600;48.126;11.542;2022-11-15T08:37:03;95213.97;;;9.58;58.07
73383;BME280;61600;48.126;11.542;2022-11-15T08:39:30;95224.16;;;9.71;57.48
73383;BME280;61600;48.126;11.542;2022-11-15T08:41:55;95220.28;;;9.77;57.31
73383;BME280;61600;48.126;11.542;2022-11-15T08:44:21;95222.81;;;9.92;57.13
73383;BME280;61600;48.126;11.542;2022-11-15T08:46:49;95230.28;;;10.00;56.77
73383;BME280;61600;48.126;11.542;2022-11-15T08:49:16;95229.91;;;10.07;56.44
73383;BME280;61600;48.126;11.542;2022-11-15T08:51:41;95227.75;;;10.09;56.79
73383;BME280;61600;48.126;11.542;2022-11-15T08:54:08;95228.78;;;10.13;56.31
73383;BME280;61600;48.126;11.542;2022-11-15T08:56:34;95241.44;;;10.22;55.67
73383;BME280;61600;48.126;11.542;2022-11-15T08:58:59;95231.75;;;10.16;56.03
73383;BME280;61600;48.126;11.542;2022-11-15T09:01:25;95230.66;;;10.36;55.08
73383;BME280;61600;48.126;11.542;2022-11-15T09:03:51;95226.75;;;10.42;54.53
73383;BME280;61600;48.126;11.542;2022-11-15T09:06:18;95234.19;;;10.55;54.15
73383;BME280;61600;48.126;11.542;2022-11-15T09:08:43;95228.97;;;10.59;53.91
73383;BME280;61600;48.126;11.542;2022-11-15T09:11:10;95228.72;;;10.74;53.94
73383;BME280;61600;48.126;11.542;2022-11-15T09:13:36;95217.97;;;10.82;53.88
73383;BME280;61600;48.126;11.542;2022-11-15T09:16:03;95216.50;;;10.90;53.66
73383;BME280;61600;48.126;11.542;2022-11-15T09:18:29;95211.75;;;10.95;53.68
73383;BME280;61600;48.126;11.542;2022-11-15T09:20:59;95204.34;;;11.01;53.48
73383;BME280;61600;48.126;11.542;2022-11-15T09:23:27;95206.28;;;11.14;53.46
73383;BME280;61600;48.126;11.542;2022-11-15T09:25:59;95197.63;;;11.26;53.51
73383;BME280;61600;48.126;11.542;2022-11-15T09:28:26;95193.09;;;11.35;52.97
73383;BME280;61600;48.126;11.542;2022-11-15T09:30:55;95182.91;;;11.40;52.12
73383;BME280;61600;48.126;11.542;2022-11-15T09:33:21;95191.69;;;11.51;51.72
73383;BME280;61600;48.126;11.542;2022-11-15T09:35:47;95187.44;;;11.59;51.58
73383;BME280;61600;48.126;11.542;2022-11-15T09:38:13;95189.41;;;11.72;50.98
73383;BME280;61600;48.126;11.542;2022-11-15T09:40:39;95182.13;;;11.81;50.76
73383;BME280;61600;48.126;11.542;2022-11-15T09:43:42;95179.69;;;12.07;50.04
73383;BME280;61600;48.126;11.542;2022-11-15T09:51:39;95157.09;;;12.28;49.39
73383;BME280;61600;48.126;11.542;2022-11-15T09:56:50;95159.38;;;12.71;48.98
73383;BME280;61600;48.126;11.542;2022-11-15T10:02:17;95148.81;;;12.78;48.40
73383;BME280;61600;48.126;11.542;2022-11-15T10:04:45;95146.72;;;12.97;48.69
73383;BME280;61600;48.126;11.542;2022-11-15T10:12:27;95134.91;;;13.10;49.30
73383;BME280;61600;48.126;11.542;2022-11-15T10:15:06;95139.47;;;13.23;48.22
73383;BME280;61600;48.126;11.542;2022-11-15T10:20:29;95124.72;;;13.24;48.48
73383;BME280;61600;48.126;11.542;2022-11-15T10:22:59;95123.00;;;13.37;47.91
73383;BME280;61600;48.126;11.542;2022-11-15T10:25:31;95126.09;;;13.52;48.40
73383;BME280;61600;48.126;11.542;2022-11-15T10:30:28;95110.09;;;13.77;47.76
73383;BME280;61600;48.126;11.542;2022-11-15T10:32:55;95103.06;;;14.01;46.75
73383;BME280;61600;48.126;11.542;2022-11-15T10:35:29;95097.13;;;14.17;46.30
73383;BME280;61600;48.126;11.542;2022-11-15T10:38:09;95090.69;;;14.13;46.42
73383;BME280;61600;48.126;11.542;2022-11-15T10:40:37;95091.34;;;14.27;45.87
73383;BME280;61600;48.126;11.542;2022-11-15T10:45:32;95082.19;;;14.48;44.87
73383;BME280;61600;48.126;11.542;2022-11-15T10:50:44;95078.16;;;14.63;44.17
73383;BME280;61600;48.126;11.542;2022-11-15T10:55:53;95064.84;;;14.99;44.71
73383;BME280;61600;48.126;11.542;2022-11-15T11:01:23;95056.41;;;15.13;43.74
73383;BME280;61600;48.126;11.542;2022-11-15T11:04:01;95052.69;;;15.18;43.66
73383;BME280;61600;48.126;11.542;2022-11-15T11:06:28;95044.53;;;15.38;43.94
73383;BME280;61600;48.126;11.542;2022-11-15T11:11:20;95037.34;;;15.63;43.74
73383;BME280;61600;48.126;11.542;2022-11-15T11:13:46;95040.75;;;15.60;43.19
73383;BME280;61600;48.126;11.542;2022-11-15T11:21:37;95030.84;;;15.97;42.62
73383;BME280;61600;48.126;11.542;2022-11-15T11:24:19;95020.59;;;15.85;42.05
73383;BME280;61600;48.126;11.542;2022-11-15T11:27:01;95019.94;;;15.59;41.56
73383;BME280;61600;48.126;11.542;2022-11-15T11:35:24;95011.88;;;15.83;40.60
73383;BME280;61600;48.126;11.542;2022-11-15T11:38:10;95007.81;;;16.31;40.06
73383;BME280;61600;48.126;11.542;2022-11-15T11:40:50;94996.41;;;16.41;40.20
73383;BME280;61600;48.126;11.542;2022-11-15T11:43:31;94998.25;;;16.70;39.55
73383;BME280;61600;48.126;11.542;2022-11-15T11:46:08;94991.72;;;16.74;39.80
73383;BME280;61600;48.126;11.542;2022-11-15T11:48:53;94986.94;;;16.83;39.83
73383;BME280;61600;48.126;11.542;2022-11-15T11:51:34;94984.97;;;16.72;45.64
73383;BME280;61600;48.126;11.542;2022-11-15T11:54:11;94982.66;;;16.62;39.14
73383;BME280;61600;48.126;11.542;2022-11-15T11:56:40;94978.13;;;16.45;40.52
73383;BME280;61600;48.126;11.542;2022-11-15T12:01:41;94971.03;;;16.77;39.04
73383;BME280;61600;48.126;11.542;2022-11-15T12:09:39;94961.44;;;17.19;38.18
73383;BME280;61600;48.126;11.542;2022-11-15T12:14:42;94954.34;;;17.06;38.75
73383;BME280;61600;48.126;11.542;2022-11-15T12:17:10;94952.03;;;17.32;38.40
73383;BME280;61600;48.126;11.542;2022-11-15T12:19:38;94948.25;;;17.25;37.80
73383;BME280;61600;48.126;11.542;2022-11-15T12:24:41;94952.84;;;16.96;38.89
73383;BME280;61600;48.126;11.542;2022-11-15T12:29:58;94953.88;;;16.92;39.15
73383;BME280;61600;48.126;11.542;2022-11-15T12:32:29;94949.75;;;16.98;39.86
73383;BME280;61600;48.126;11.542;2022-11-15T12:34:56;94946.84;;;16.58;39.80
73383;BME280;61600;48.126;11.542;2022-11-15T12:37:41;94941.03;;;16.84;39.45
73383;BME280;61600;48.126;11.542;2022-11-15T12:42:42;94946.09;;;16.49;40.37
73383;BME280;61600;48.126;11.542;2022-11-15T12:47:49;94941.38;;;16.37;40.91
73383;BME280;61600;48.126;11.542;2022-11-15T12:50:16;94931.09;;;16.91;39.32
73383;BME280;61600;48.126;11.542;2022-11-15T12:53:34;94934.19;;;17.26;38.95
73383;BME280;61600;48.126;11.542;2022-11-15T12:58:59;94931.31;;;16.86;39.87
73383;BME280;61600;48.126;11.542;2022-11-15T13:04:21;94920.22;;;17.19;39.74
73383;BME280;61600;48.126;11.542;2022-11-15T13:14:56;94909.22;;;18.39;37.70
73383;BME280;61600;48.126;11.542;2022-11-15T13:17:26;94908.94;;;18.28;37.38
73383;BME280;61600;48.126;11.542;2022-11-15T13:23:02;94903.53;;;18.91;35.88
73383;BME280;61600;48.126;11.542;2022-11-15T13:28:02;94908.84;;;19.31;35.81
73383;BME280;61600;48.126;11.542;2022-11-15T13:30:34;94905.34;;;19.50;35.41
73383;BME280;61600;48.126;11.542;2022-11-15T13:33:08;94907.47;;;19.40;35.18
73383;BME280;61600;48.126;11.542;2022-11-15T13:35:38;94904.38;;;19.26;35.35
73383;BME280;61600;48.126;11.542;2022-11-15T13:38:05;94906.50;;;19.49;35.24
73383;BME280;61600;48.126;11.542;2022-11-15T13:40:36;94899.72;;;19.62;34.78
73383;BME280;61600;48.126;11.542;2022-11-15T13:46:04;94903.31;;;19.47;35.33
73383;BME280;61600;48.126;11.542;2022-11-15T13:48:30;94901.09;;;19.71;35.54
73383;BME280;61600;48.126;11.542;2022-11-15T13:50:56;94908.88;;;19.66;34.95
73383;BME280;61600;48.126;11.542;2022-11-15T13:53:23;94896.72;;;19.51;35.12
73383;BME280;61600;48.126;11.542;2022-11-15T13:55:49;94893.88;;;19.32;35.16
73383;BME280;61600;48.126;11.542;2022-11-15T13:58:16;94903.06;;;19.05;35.44
73383;BME280;61600;48.126;11.542;2022-11-15T14:00:43;94901.13;;;19.21;36.03
73383;BME280;61600;48.126;11.542;2022-11-15T14:03:21;94897.03;;;18.68;36.79
73383;BME280;61600;48.126;11.542;2022-11-15T14:06:09;94904.88;;;18.38;37.46
73383;BME280;61600;48.126;11.542;2022-11-15T14:08:39;94899.59;;;18.17;37.97
73383;BME280;61600;48.126;11.542;2022-11-15T14:11:19;94901.66;;;17.80;38.37
73383;BME280;61600;48.126;11.542;2022-11-15T14:16:46;94903.69;;;17.43;39.18
73383;BME280;61600;48.126;11.542;2022-11-15T14:19:33;94902.13;;;17.18;39.97
73383;BME280;61600;48.126;11.542;2022-11-15T14:22:13;94908.75;;;17.17;40.32
73383;BME280;61600;48.126;11.542;2022-11-15T14:24:40;94909.47;;;16.78;40.61
73383;BME280;61600;48.126;11.542;2022-11-15T14:27:22;94913.16;;;16.49;41.62
73383;BME280;61600;48.126;11.542;2022-11-15T14:29:49;94909.25;;;16.38;41.73
73383;BME280;61600;48.126;11.542;2022-11-15T14:34:42;94915.31;;;16.43;41.49
73383;BME280;61600;48.126;11.542;2022-11-15T14:37:18;94907.25;;;16.14;41.95
73383;BME280;61600;48.126;11.542;2022-11-15T14:39:46;94905.44;;;16.18;42.31
73383;BME280;61600;48.126;11.542;2022-11-15T14:42:12;94910.00;;;16.26;42.03
73383;BME280;61600;48.126;11.542;2022-11-15T14:44:38;94910.91;;;16.18;42.12
73383;BME280;61600;48.126;11.542;2022-11-15T14:47:04;94907.25;;;16.14;42.23
73383;BME280;61600;48.126;11.542;2022-11-15T14:49:30;94904.38;;;16.11;42.84
73383;BME280;61600;48.126;11.542;2022-11-15T14:51:58;94911.41;;;15.99;43.31
73383;BME280;61600;48.126;11.542;2022-11-15T14:54:24;94913.97;;;15.84;43.62
73383;BME280;61600;48.126;11.542;2022-11-15T14:56:50;94910.53;;;15.87;43.44
73383;BME280;61600;48.126;11.542;2022-11-15T14:59:15;94905.63;;;15.60;43.58
73383;BME280;61600;48.126;11.542;2022-11-15T15:01:41;94903.56;;;15.57;44.20
73383;BME280;61600;48.126;11.542;2022-11-15T15:04:08;94904.22;;;15.54;44.69
73383;BME280;61600;48.126;11.542;2022-11-15T15:06:34;94902.31;;;15.45;45.27
73383;BME280;61600;48.126;11.542;2022-11-15T15:09:00;94894.50;;;15.35;45.72
73383;BME280;61600;48.126;11.542;2022-11-15T15:11:28;94902.69;;;15.15;46.72
73383;BME280;61600;48.126;11.542;2022-11-15T15:13:54;94900.66;;;15.03;49.34
73383;BME280;61600;48.126;11.542;2022-11-15T15:16:23;94907.16;;;14.98;51.00